Sunday, December 16, 2018, 3:34 PM GMT
Back to Local

CWER, Ile D'Orleans Automated Reporting Station

Location: , , Canada Lat: 47
Local Time: 3:34 PM GMT (15:34 GMT) Lon: -70.817
Time Zone: GMT Elev: 16 ft

Show me the last for .
Show Coded

Time T Td Feel RH Dir Speed Gust Alt SLP Vis Weather Sky Remarks
2018-12-16 15:00 - - - 0 220° 2 - - - 0 None
2018-12-16 14:00 - - - 0 40° 6 - - - 0 None
2018-12-16 13:00 - - - 0 20° 5 - - - 0 None
2018-12-16 12:00 - - - 0 20° 2 - - - 0 None
2018-12-16 11:00 - - - 0 240° 1 - - - 0 None
2018-12-16 10:00 - - - 0 - Calm - - - 0 None
2018-12-16 09:00 - - - 0 260° 5 - - - 0 None
2018-12-16 08:00 - - - 0 230° 3 - - - 0 None
2018-12-16 07:00 - - - 0 40° 2 - - - 0 None
2018-12-16 06:00 - - - 0 250° 3 - - - 0 None
2018-12-16 05:00 - - - 0 280° 7 - - - 0 None
2018-12-16 04:00 - - - 0 260° 8 - - - 0 None
2018-12-16 03:00 - - - 0 270° 9 - - - 0 None
2018-12-16 02:00 - - - 0 260° 8 - - - 0 None
2018-12-16 01:00 - - - 0 270° 5 - - - 0 None
2018-12-16 00:00 - - - 0 260° 10 - - - 0 None
2018-12-15 23:00 - - - 0 260° 10 - - - 0 None
2018-12-15 22:00 - - - 0 260° 15 - - - 0 None
2018-12-15 21:00 - - - 0 260° 13 - - - 0 None
2018-12-15 20:00 - - - 0 260° 12 - - - 0 None
2018-12-15 19:00 - - - 0 250° 14 - - - 0 None
2018-12-15 18:00 - - - 0 240° 14 - - - 0 Peak wind: 21 mph (19 kts) from 220° at 23 min
2018-12-15 17:00 - - - 0 230° 16 - - - 0 Peak wind: 24 mph (21 kts) from 230° at 34 min
2018-12-15 16:00 - - - 0 240° 18 - - - 0 Peak wind: 23 mph (20 kts) from 230° at 40 min

Support USWX by starting your Amazon purchase here.